sensor_id;sensor_type;location;lat;lon;timestamp;P1;durP1;ratioP1;P2;durP2;ratioP2
19173;SDS011;9719;49.322;8.536;2023-03-14T00:04:57;1.00;;;1.00;;
19173;SDS011;9719;49.322;8.536;2023-03-14T00:09:59;1.85;;;1.27;;
19173;SDS011;9719;49.322;8.536;2023-03-14T00:15:00;2.35;;;1.63;;
19173;SDS011;9719;49.322;8.536;2023-03-14T00:20:05;1.08;;;1.08;;
19173;SDS011;9719;49.322;8.536;2023-03-14T00:25:10;1.30;;;1.20;;
19173;SDS011;9719;49.322;8.536;2023-03-14T00:30:12;1.10;;;1.00;;
19173;SDS011;9719;49.322;8.536;2023-03-14T00:35:16;1.20;;;1.10;;
19173;SDS011;9719;49.322;8.536;2023-03-14T00:40:18;1.48;;;1.00;;
19173;SDS011;9719;49.322;8.536;2023-03-14T00:45:20;0.98;;;0.98;;
19173;SDS011;9719;49.322;8.536;2023-03-14T00:50:23;1.42;;;1.33;;
19173;SDS011;9719;49.322;8.536;2023-03-14T00:55:26;1.38;;;1.27;;
19173;SDS011;9719;49.322;8.536;2023-03-14T01:00:28;1.05;;;1.05;;
19173;SDS011;9719;49.322;8.536;2023-03-14T01:05:34;1.52;;;1.42;;
19173;SDS011;9719;49.322;8.536;2023-03-14T01:10:37;1.35;;;1.20;;
19173;SDS011;9719;49.322;8.536;2023-03-14T01:15:40;1.38;;;1.27;;
19173;SDS011;9719;49.322;8.536;2023-03-14T01:20:43;1.55;;;1.45;;
19173;SDS011;9719;49.322;8.536;2023-03-14T01:25:45;1.95;;;1.80;;
19173;SDS011;9719;49.322;8.536;2023-03-14T01:30:47;3.13;;;1.70;;
19173;SDS011;9719;49.322;8.536;2023-03-14T01:35:50;1.92;;;1.83;;
19173;SDS011;9719;49.322;8.536;2023-03-14T01:40:52;2.38;;;1.58;;
19173;SDS011;9719;49.322;8.536;2023-03-14T01:51:52;0.88;;;0.88;;
19173;SDS011;9719;49.322;8.536;2023-03-14T01:56:57;1.23;;;1.15;;
19173;SDS011;9719;49.322;8.536;2023-03-14T02:02:04;5.75;;;1.20;;
19173;SDS011;9719;49.322;8.536;2023-03-14T02:07:10;1.42;;;1.33;;
19173;SDS011;9719;49.322;8.536;2023-03-14T02:12:15;1.20;;;1.10;;
19173;SDS011;9719;49.322;8.536;2023-03-14T02:17:18;3.42;;;2.13;;
19173;SDS011;9719;49.322;8.536;2023-03-14T02:22:23;2.05;;;1.40;;
19173;SDS011;9719;49.322;8.536;2023-03-14T02:27:26;2.08;;;1.20;;
19173;SDS011;9719;49.322;8.536;2023-03-14T02:32:29;1.33;;;1.02;;
19173;SDS011;9719;49.322;8.536;2023-03-14T02:37:33;1.10;;;1.10;;
19173;SDS011;9719;49.322;8.536;2023-03-14T02:42:41;4.25;;;2.13;;
19173;SDS011;9719;49.322;8.536;2023-03-14T02:47:43;1.52;;;1.30;;
19173;SDS011;9719;49.322;8.536;2023-03-14T02:52:48;1.30;;;1.20;;
19173;SDS011;9719;49.322;8.536;2023-03-14T02:57:51;3.05;;;1.35;;
19173;SDS011;9719;49.322;8.536;2023-03-14T03:02:54;1.25;;;0.85;;
19173;SDS011;9719;49.322;8.536;2023-03-14T03:07:56;1.80;;;1.23;;
19173;SDS011;9719;49.322;8.536;2023-03-14T03:12:59;1.40;;;1.30;;
19173;SDS011;9719;49.322;8.536;2023-03-14T03:18:01;1.45;;;1.35;;
19173;SDS011;9719;49.322;8.536;2023-03-14T03:23:03;1.95;;;1.15;;
19173;SDS011;9719;49.322;8.536;2023-03-14T03:28:07;0.98;;;0.70;;
19173;SDS011;9719;49.322;8.536;2023-03-14T03:33:09;1.60;;;1.50;;
19173;SDS011;9719;49.322;8.536;2023-03-14T03:38:12;1.38;;;1.17;;
19173;SDS011;9719;49.322;8.536;2023-03-14T03:43:15;0.77;;;0.77;;
19173;SDS011;9719;49.322;8.536;2023-03-14T03:48:18;1.55;;;1.45;;
19173;SDS011;9719;49.322;8.536;2023-03-14T03:53:20;3.15;;;1.48;;
19173;SDS011;9719;49.322;8.536;2023-03-14T03:58:23;2.05;;;1.20;;
19173;SDS011;9719;49.322;8.536;2023-03-14T04:03:25;0.80;;;0.80;;
19173;SDS011;9719;49.322;8.536;2023-03-14T04:08:27;1.63;;;1.10;;
19173;SDS011;9719;49.322;8.536;2023-03-14T04:13:30;1.08;;;0.98;;
19173;SDS011;9719;49.322;8.536;2023-03-14T04:18:32;0.80;;;0.80;;
19173;SDS011;9719;49.322;8.536;2023-03-14T04:23:34;1.40;;;0.80;;
19173;SDS011;9719;49.322;8.536;2023-03-14T04:28:38;2.13;;;0.90;;
19173;SDS011;9719;49.322;8.536;2023-03-14T04:33:40;1.13;;;1.02;;
19173;SDS011;9719;49.322;8.536;2023-03-14T04:38:41;1.52;;;1.42;;
19173;SDS011;9719;49.322;8.536;2023-03-14T04:43:45;1.65;;;0.77;;
19173;SDS011;9719;49.322;8.536;2023-03-14T04:48:46;1.40;;;1.30;;
19173;SDS011;9719;49.322;8.536;2023-03-14T04:53:48;0.80;;;0.70;;
19173;SDS011;9719;49.322;8.536;2023-03-14T04:58:51;1.88;;;1.17;;
19173;SDS011;9719;49.322;8.536;2023-03-14T05:03:53;2.25;;;1.00;;
19173;SDS011;9719;49.322;8.536;2023-03-14T05:08:55;1.75;;;0.95;;
19173;SDS011;9719;49.322;8.536;2023-03-14T05:13:58;2.55;;;1.00;;
19173;SDS011;9719;49.322;8.536;2023-03-14T05:19:00;0.80;;;0.80;;
19173;SDS011;9719;49.322;8.536;2023-03-14T05:24:02;2.20;;;1.20;;
19173;SDS011;9719;49.322;8.536;2023-03-14T05:29:06;1.65;;;0.90;;
19173;SDS011;9719;49.322;8.536;2023-03-14T05:34:08;2.80;;;1.35;;
19173;SDS011;9719;49.322;8.536;2023-03-14T05:39:10;1.70;;;1.45;;
19173;SDS011;9719;49.322;8.536;2023-03-14T05:44:13;0.95;;;0.95;;
19173;SDS011;9719;49.322;8.536;2023-03-14T05:49:14;1.85;;;1.02;;
19173;SDS011;9719;49.322;8.536;2023-03-14T05:54:16;2.00;;;1.90;;
19173;SDS011;9719;49.322;8.536;2023-03-14T05:59:20;2.05;;;0.90;;
19173;SDS011;9719;49.322;8.536;2023-03-14T06:04:21;2.92;;;1.30;;
19173;SDS011;9719;49.322;8.536;2023-03-14T06:09:26;1.48;;;0.85;;
19173;SDS011;9719;49.322;8.536;2023-03-14T06:14:30;3.25;;;1.20;;
19173;SDS011;9719;49.322;8.536;2023-03-14T06:19:31;0.93;;;0.88;;
19173;SDS011;9719;49.322;8.536;2023-03-14T06:24:33;2.20;;;1.10;;
19173;SDS011;9719;49.322;8.536;2023-03-14T06:29:37;2.50;;;1.33;;
19173;SDS011;9719;49.322;8.536;2023-03-14T06:34:38;1.55;;;1.10;;
19173;SDS011;9719;49.322;8.536;2023-03-14T06:39:40;2.13;;;1.05;;
19173;SDS011;9719;49.322;8.536;2023-03-14T06:44:45;1.10;;;1.10;;
19173;SDS011;9719;49.322;8.536;2023-03-14T06:49:47;1.95;;;0.98;;
19173;SDS011;9719;49.322;8.536;2023-03-14T06:54:49;3.25;;;0.88;;
19173;SDS011;9719;49.322;8.536;2023-03-14T06:59:52;0.98;;;0.98;;
19173;SDS011;9719;49.322;8.536;2023-03-14T07:04:54;2.08;;;1.67;;
19173;SDS011;9719;49.322;8.536;2023-03-14T07:09:55;3.03;;;1.00;;
19173;SDS011;9719;49.322;8.536;2023-03-14T07:14:59;2.13;;;1.08;;
19173;SDS011;9719;49.322;8.536;2023-03-14T07:20:00;0.98;;;0.98;;
19173;SDS011;9719;49.322;8.536;2023-03-14T07:25:05;5.60;;;1.25;;
19173;SDS011;9719;49.322;8.536;2023-03-14T07:30:11;1.33;;;1.13;;
19173;SDS011;9719;49.322;8.536;2023-03-14T07:35:13;2.03;;;0.93;;
19173;SDS011;9719;49.322;8.536;2023-03-14T07:40:15;1.25;;;1.10;;
19173;SDS011;9719;49.322;8.536;2023-03-14T07:45:19;2.85;;;1.20;;
19173;SDS011;9719;49.322;8.536;2023-03-14T07:50:21;1.73;;;1.27;;
19173;SDS011;9719;49.322;8.536;2023-03-14T07:55:22;1.45;;;1.27;;
19173;SDS011;9719;49.322;8.536;2023-03-14T08:00:26;1.00;;;0.90;;
19173;SDS011;9719;49.322;8.536;2023-03-14T08:05:28;1.50;;;0.70;;
19173;SDS011;9719;49.322;8.536;2023-03-14T08:10:30;0.80;;;0.80;;
19173;SDS011;9719;49.322;8.536;2023-03-14T08:15:35;1.25;;;0.70;;
19173;SDS011;9719;49.322;8.536;2023-03-14T08:20:37;0.70;;;0.60;;
19173;SDS011;9719;49.322;8.536;2023-03-14T08:25:38;1.27;;;0.70;;
19173;SDS011;9719;49.322;8.536;2023-03-14T08:30:42;0.80;;;0.60;;
19173;SDS011;9719;49.322;8.536;2023-03-14T08:35:43;1.55;;;0.82;;
19173;SDS011;9719;49.322;8.536;2023-03-14T08:40:45;1.02;;;0.93;;
19173;SDS011;9719;49.322;8.536;2023-03-14T08:45:49;1.60;;;0.60;;
19173;SDS011;9719;49.322;8.536;2023-03-14T08:50:50;0.75;;;0.70;;
19173;SDS011;9719;49.322;8.536;2023-03-14T08:55:52;0.70;;;0.60;;
19173;SDS011;9719;49.322;8.536;2023-03-14T09:00:56;0.98;;;0.68;;
19173;SDS011;9719;49.322;8.536;2023-03-14T09:06:01;1.63;;;0.70;;
19173;SDS011;9719;49.322;8.536;2023-03-14T09:11:06;1.38;;;0.60;;
19173;SDS011;9719;49.322;8.536;2023-03-14T09:16:10;1.23;;;1.02;;
19173;SDS011;9719;49.322;8.536;2023-03-14T09:21:12;0.85;;;0.65;;
19173;SDS011;9719;49.322;8.536;2023-03-14T09:26:14;0.52;;;0.52;;
19173;SDS011;9719;49.322;8.536;2023-03-14T09:31:17;0.70;;;0.70;;
19173;SDS011;9719;49.322;8.536;2023-03-14T09:36:19;0.65;;;0.60;;
19173;SDS011;9719;49.322;8.536;2023-03-14T09:41:22;1.15;;;0.60;;
19173;SDS011;9719;49.322;8.536;2023-03-14T09:46:28;0.90;;;0.50;;
19173;SDS011;9719;49.322;8.536;2023-03-14T09:51:32;0.80;;;0.80;;
19173;SDS011;9719;49.322;8.536;2023-03-14T09:56:34;0.80;;;0.80;;
19173;SDS011;9719;49.322;8.536;2023-03-14T10:01:38;0.90;;;0.90;;
19173;SDS011;9719;49.322;8.536;2023-03-14T10:06:39;0.93;;;0.80;;
19173;SDS011;9719;49.322;8.536;2023-03-14T10:11:41;0.70;;;0.60;;
19173;SDS011;9719;49.322;8.536;2023-03-14T10:16:45;0.60;;;0.60;;
19173;SDS011;9719;49.322;8.536;2023-03-14T10:21:50;1.00;;;1.00;;
19173;SDS011;9719;49.322;8.536;2023-03-14T10:26:53;0.68;;;0.68;;
19173;SDS011;9719;49.322;8.536;2023-03-14T10:32:00;1.00;;;0.90;;
19173;SDS011;9719;49.322;8.536;2023-03-14T10:37:05;0.70;;;0.70;;
19173;SDS011;9719;49.322;8.536;2023-03-14T10:42:14;0.45;;;0.45;;
19173;SDS011;9719;49.322;8.536;2023-03-14T10:47:22;0.52;;;0.52;;
19173;SDS011;9719;49.322;8.536;2023-03-14T10:52:26;0.60;;;0.60;;
19173;SDS011;9719;49.322;8.536;2023-03-14T10:57:29;1.40;;;0.50;;
19173;SDS011;9719;49.322;8.536;2023-03-14T11:02:39;0.57;;;0.57;;
19173;SDS011;9719;49.322;8.536;2023-03-14T11:07:48;0.60;;;0.60;;
19173;SDS011;9719;49.322;8.536;2023-03-14T11:12:56;0.85;;;0.85;;
19173;SDS011;9719;49.322;8.536;2023-03-14T11:18:26;0.70;;;0.70;;
19173;SDS011;9719;49.322;8.536;2023-03-14T11:23:46;0.70;;;0.70;;
19173;SDS011;9719;49.322;8.536;2023-03-14T11:28:57;0.60;;;0.60;;
19173;SDS011;9719;49.322;8.536;2023-03-14T11:34:06;0.70;;;0.70;;
19173;SDS011;9719;49.322;8.536;2023-03-14T11:39:16;1.17;;;0.80;;
19173;SDS011;9719;49.322;8.536;2023-03-14T11:44:20;0.95;;;0.95;;
19173;SDS011;9719;49.322;8.536;2023-03-14T11:49:29;1.95;;;0.73;;
19173;SDS011;9719;49.322;8.536;2023-03-14T11:54:38;0.60;;;0.60;;
19173;SDS011;9719;49.322;8.536;2023-03-14T11:59:47;0.70;;;0.70;;
19173;SDS011;9719;49.322;8.536;2023-03-14T12:04:59;0.90;;;0.90;;
19173;SDS011;9719;49.322;8.536;2023-03-14T12:10:25;0.63;;;0.63;;
19173;SDS011;9719;49.322;8.536;2023-03-14T12:15:28;0.60;;;0.60;;
19173;SDS011;9719;49.322;8.536;2023-03-14T12:20:31;0.73;;;0.68;;
19173;SDS011;9719;49.322;8.536;2023-03-14T12:25:39;0.70;;;0.70;;
19173;SDS011;9719;49.322;8.536;2023-03-14T12:30:41;0.60;;;0.60;;
19173;SDS011;9719;49.322;8.536;2023-03-14T12:35:44;0.60;;;0.60;;
19173;SDS011;9719;49.322;8.536;2023-03-14T12:40:49;0.80;;;0.80;;
19173;SDS011;9719;49.322;8.536;2023-03-14T12:46:14;2.92;;;0.95;;
19173;SDS011;9719;49.322;8.536;2023-03-14T12:51:34;0.65;;;0.60;;
19173;SDS011;9719;49.322;8.536;2023-03-14T12:56:40;0.70;;;0.70;;
19173;SDS011;9719;49.322;8.536;2023-03-14T13:01:53;0.90;;;0.90;;
19173;SDS011;9719;49.322;8.536;2023-03-14T13:06:59;1.20;;;0.90;;
19173;SDS011;9719;49.322;8.536;2023-03-14T13:12:02;1.15;;;1.15;;
19173;SDS011;9719;49.322;8.536;2023-03-14T13:17:10;0.80;;;0.60;;
19173;SDS011;9719;49.322;8.536;2023-03-14T13:22:16;0.70;;;0.70;;
19173;SDS011;9719;49.322;8.536;2023-03-14T13:27:22;1.55;;;0.90;;
19173;SDS011;9719;49.322;8.536;2023-03-14T13:32:26;0.73;;;0.73;;
19173;SDS011;9719;49.322;8.536;2023-03-14T13:37:30;0.90;;;0.80;;
19173;SDS011;9719;49.322;8.536;2023-03-14T13:42:31;5.00;;;1.63;;
19173;SDS011;9719;49.322;8.536;2023-03-14T13:47:33;1.42;;;0.90;;
19173;SDS011;9719;49.322;8.536;2023-03-14T13:52:42;2.05;;;0.70;;
19173;SDS011;9719;49.322;8.536;2023-03-14T13:57:44;1.65;;;0.90;;
19173;SDS011;9719;49.322;8.536;2023-03-14T14:02:47;0.63;;;0.63;;
19173;SDS011;9719;49.322;8.536;2023-03-14T14:07:51;0.75;;;0.70;;
19173;SDS011;9719;49.322;8.536;2023-03-14T14:12:53;0.80;;;0.80;;
19173;SDS011;9719;49.322;8.536;2023-03-14T14:18:00;1.48;;;0.80;;
19173;SDS011;9719;49.322;8.536;2023-03-14T14:23:07;4.00;;;1.83;;
19173;SDS011;9719;49.322;8.536;2023-03-14T14:28:16;0.60;;;0.60;;
19173;SDS011;9719;49.322;8.536;2023-03-14T14:33:24;0.80;;;0.80;;
19173;SDS011;9719;49.322;8.536;2023-03-14T14:38:27;1.35;;;0.93;;
19173;SDS011;9719;49.322;8.536;2023-03-14T14:43:30;0.90;;;0.73;;
19173;SDS011;9719;49.322;8.536;2023-03-14T14:48:37;2.28;;;0.80;;
19173;SDS011;9719;49.322;8.536;2023-03-14T14:53:41;1.27;;;1.00;;
19173;SDS011;9719;49.322;8.536;2023-03-14T14:58:44;3.90;;;1.90;;
19173;SDS011;9719;49.322;8.536;2023-03-14T15:03:47;1.67;;;1.08;;
19173;SDS011;9719;49.322;8.536;2023-03-14T15:08:53;1.33;;;1.08;;
19173;SDS011;9719;49.322;8.536;2023-03-14T15:13:55;0.80;;;0.77;;
19173;SDS011;9719;49.322;8.536;2023-03-14T15:18:57;1.40;;;1.10;;
19173;SDS011;9719;49.322;8.536;2023-03-14T15:24:03;1.73;;;0.60;;
19173;SDS011;9719;49.322;8.536;2023-03-14T15:29:11;2.08;;;1.42;;
19173;SDS011;9719;49.322;8.536;2023-03-14T15:34:13;0.65;;;0.65;;
19173;SDS011;9719;49.322;8.536;2023-03-14T15:39:18;1.90;;;0.90;;
19173;SDS011;9719;49.322;8.536;2023-03-14T15:44:19;1.48;;;0.90;;
19173;SDS011;9719;49.322;8.536;2023-03-14T15:49:22;1.35;;;0.75;;
19173;SDS011;9719;49.322;8.536;2023-03-14T15:54:25;1.85;;;1.17;;
19173;SDS011;9719;49.322;8.536;2023-03-14T15:59:28;0.82;;;0.77;;
19173;SDS011;9719;49.322;8.536;2023-03-14T16:04:30;4.07;;;1.75;;
19173;SDS011;9719;49.322;8.536;2023-03-14T16:09:33;0.85;;;0.73;;
19173;SDS011;9719;49.322;8.536;2023-03-14T16:14:34;0.85;;;0.80;;
19173;SDS011;9719;49.322;8.536;2023-03-14T16:19:36;2.05;;;0.93;;
19173;SDS011;9719;49.322;8.536;2023-03-14T16:24:39;2.17;;;1.40;;
19173;SDS011;9719;49.322;8.536;2023-03-14T16:29:42;2.13;;;1.90;;
19173;SDS011;9719;49.322;8.536;2023-03-14T16:34:46;1.10;;;1.00;;
19173;SDS011;9719;49.322;8.536;2023-03-14T16:39:49;1.58;;;1.02;;
19173;SDS011;9719;49.322;8.536;2023-03-14T16:44:51;2.72;;;1.95;;
19173;SDS011;9719;49.322;8.536;2023-03-14T16:49:53;2.50;;;1.10;;
19173;SDS011;9719;49.322;8.536;2023-03-14T16:54:56;1.65;;;1.00;;
19173;SDS011;9719;49.322;8.536;2023-03-14T16:59:58;1.73;;;0.98;;
19173;SDS011;9719;49.322;8.536;2023-03-14T17:05:00;2.08;;;1.55;;
19173;SDS011;9719;49.322;8.536;2023-03-14T17:10:03;2.65;;;1.30;;
19173;SDS011;9719;49.322;8.536;2023-03-14T17:15:06;3.00;;;2.47;;
19173;SDS011;9719;49.322;8.536;2023-03-14T17:20:09;1.38;;;1.27;;
19173;SDS011;9719;49.322;8.536;2023-03-14T17:25:13;2.03;;;1.13;;
19173;SDS011;9719;49.322;8.536;2023-03-14T17:30:16;1.05;;;1.00;;
19173;SDS011;9719;49.322;8.536;2023-03-14T17:35:18;1.77;;;1.33;;
19173;SDS011;9719;49.322;8.536;2023-03-14T17:40:21;4.47;;;1.60;;
19173;SDS011;9719;49.322;8.536;2023-03-14T17:45:23;1.63;;;1.52;;
19173;SDS011;9719;49.322;8.536;2023-03-14T17:50:24;3.78;;;1.63;;
19173;SDS011;9719;49.322;8.536;2023-03-14T17:55:28;1.73;;;1.40;;
19173;SDS011;9719;49.322;8.536;2023-03-14T18:00:30;3.00;;;1.38;;
19173;SDS011;9719;49.322;8.536;2023-03-14T18:05:32;3.25;;;1.20;;
19173;SDS011;9719;49.322;8.536;2023-03-14T18:10:35;1.38;;;1.10;;
19173;SDS011;9719;49.322;8.536;2023-03-14T18:15:37;1.45;;;1.35;;
19173;SDS011;9719;49.322;8.536;2023-03-14T18:20:38;1.63;;;1.10;;
19173;SDS011;9719;49.322;8.536;2023-03-14T18:25:41;2.22;;;1.60;;
19173;SDS011;9719;49.322;8.536;2023-03-14T18:30:43;3.63;;;1.30;;
19173;SDS011;9719;49.322;8.536;2023-03-14T18:35:51;1.38;;;1.27;;
19173;SDS011;9719;49.322;8.536;2023-03-14T18:40:54;2.33;;;1.20;;
19173;SDS011;9719;49.322;8.536;2023-03-14T18:45:56;2.17;;;1.75;;
19173;SDS011;9719;49.322;8.536;2023-03-14T18:50:58;1.85;;;1.13;;
19173;SDS011;9719;49.322;8.536;2023-03-14T18:56:01;1.50;;;1.40;;
19173;SDS011;9719;49.322;8.536;2023-03-14T19:01:04;2.33;;;1.60;;
19173;SDS011;9719;49.322;8.536;2023-03-14T19:06:06;2.30;;;2.08;;
19173;SDS011;9719;49.322;8.536;2023-03-14T19:11:11;1.57;;;1.47;;
19173;SDS011;9719;49.322;8.536;2023-03-14T19:16:14;1.20;;;1.10;;
19173;SDS011;9719;49.322;8.536;2023-03-14T19:21:20;2.00;;;1.00;;
19173;SDS011;9719;49.322;8.536;2023-03-14T19:26:28;1.10;;;1.10;;
19173;SDS011;9719;49.322;8.536;2023-03-14T19:31:31;2.50;;;1.50;;
19173;SDS011;9719;49.322;8.536;2023-03-14T19:36:33;1.70;;;1.60;;
19173;SDS011;9719;49.322;8.536;2023-03-14T19:41:39;2.07;;;1.97;;
19173;SDS011;9719;49.322;8.536;2023-03-14T19:46:40;1.10;;;1.10;;
19173;SDS011;9719;49.322;8.536;2023-03-14T19:51:42;1.80;;;1.27;;
19173;SDS011;9719;49.322;8.536;2023-03-14T19:56:45;2.17;;;1.30;;
19173;SDS011;9719;49.322;8.536;2023-03-14T20:01:48;3.77;;;1.50;;
19173;SDS011;9719;49.322;8.536;2023-03-14T20:06:51;1.33;;;1.33;;
19173;SDS011;9719;49.322;8.536;2023-03-14T20:11:54;1.37;;;1.10;;
19173;SDS011;9719;49.322;8.536;2023-03-14T20:16:56;1.63;;;1.50;;
19173;SDS011;9719;49.322;8.536;2023-03-14T20:21:58;2.20;;;1.63;;
19173;SDS011;9719;49.322;8.536;2023-03-14T20:27:01;1.97;;;1.63;;
19173;SDS011;9719;49.322;8.536;2023-03-14T20:32:03;2.80;;;1.70;;
19173;SDS011;9719;49.322;8.536;2023-03-14T20:37:05;2.57;;;1.83;;
19173;SDS011;9719;49.322;8.536;2023-03-14T20:42:08;3.77;;;1.97;;
19173;SDS011;9719;49.322;8.536;2023-03-14T20:47:10;5.07;;;2.67;;
19173;SDS011;9719;49.322;8.536;2023-03-14T20:52:12;5.80;;;2.70;;
19173;SDS011;9719;49.322;8.536;2023-03-14T20:57:15;7.57;;;2.50;;
19173;SDS011;9719;49.322;8.536;2023-03-14T21:02:17;2.40;;;2.20;;
19173;SDS011;9719;49.322;8.536;2023-03-14T21:07:19;8.00;;;3.57;;
19173;SDS011;9719;49.322;8.536;2023-03-14T21:12:22;6.03;;;2.90;;
19173;SDS011;9719;49.322;8.536;2023-03-14T21:17:23;3.43;;;2.47;;
19173;SDS011;9719;49.322;8.536;2023-03-14T21:22:25;5.07;;;2.90;;
19173;SDS011;9719;49.322;8.536;2023-03-14T21:27:29;4.30;;;3.33;;
19173;SDS011;9719;49.322;8.536;2023-03-14T21:32:31;4.20;;;2.20;;
19173;SDS011;9719;49.322;8.536;2023-03-14T21:37:33;5.67;;;2.67;;
19173;SDS011;9719;49.322;8.536;2023-03-14T21:42:36;2.83;;;2.50;;
19173;SDS011;9719;49.322;8.536;2023-03-14T21:47:38;6.27;;;2.90;;
19173;SDS011;9719;49.322;8.536;2023-03-14T21:52:44;5.53;;;2.50;;
19173;SDS011;9719;49.322;8.536;2023-03-14T21:57:47;5.73;;;2.33;;
19173;SDS011;9719;49.322;8.536;2023-03-14T22:02:50;4.33;;;2.87;;
19173;SDS011;9719;49.322;8.536;2023-03-14T22:07:54;8.00;;;3.23;;
19173;SDS011;9719;49.322;8.536;2023-03-14T22:12:57;5.83;;;3.23;;
19173;SDS011;9719;49.322;8.536;2023-03-14T22:17:58;6.43;;;3.50;;
19173;SDS011;9719;49.322;8.536;2023-03-14T22:23:00;4.80;;;3.53;;
19173;SDS011;9719;49.322;8.536;2023-03-14T22:28:03;4.83;;;2.60;;
19173;SDS011;9719;49.322;8.536;2023-03-14T22:33:05;4.20;;;2.33;;
19173;SDS011;9719;49.322;8.536;2023-03-14T22:38:06;8.97;;;3.23;;
19173;SDS011;9719;49.322;8.536;2023-03-14T22:43:09;5.13;;;2.43;;
19173;SDS011;9719;49.322;8.536;2023-03-14T22:48:11;4.47;;;2.77;;
19173;SDS011;9719;49.322;8.536;2023-03-14T22:53:14;3.27;;;1.77;;
19173;SDS011;9719;49.322;8.536;2023-03-14T22:58:17;4.97;;;2.30;;
19173;SDS011;9719;49.322;8.536;2023-03-14T23:03:19;3.57;;;2.50;;
19173;SDS011;9719;49.322;8.536;2023-03-14T23:08:21;2.67;;;2.10;;
19173;SDS011;9719;49.322;8.536;2023-03-14T23:13:24;4.17;;;2.67;;
19173;SDS011;9719;49.322;8.536;2023-03-14T23:18:26;6.73;;;2.17;;
19173;SDS011;9719;49.322;8.536;2023-03-14T23:23:28;6.40;;;3.73;;
19173;SDS011;9719;49.322;8.536;2023-03-14T23:28:31;5.93;;;3.87;;
19173;SDS011;9719;49.322;8.536;2023-03-14T23:33:33;2.40;;;2.03;;
19173;SDS011;9719;49.322;8.536;2023-03-14T23:38:36;3.37;;;2.43;;
19173;SDS011;9719;49.322;8.536;2023-03-14T23:43:39;2.63;;;1.70;;
19173;SDS011;9719;49.322;8.536;2023-03-14T23:48:41;2.23;;;1.50;;
19173;SDS011;9719;49.322;8.536;2023-03-14T23:53:45;3.10;;;2.10;;
19173;SDS011;9719;49.322;8.536;2023-03-14T23:58:49;1.70;;;1.50;;
